sensor_id;sensor_type;location;lat;lon;timestamp;P1;durP1;ratioP1;P2;durP2;ratioP2
33900;SDS011;20193;49.810;6.418;2022-09-09T00:00:14;9.95;;;9.45;;
33900;SDS011;20193;49.810;6.418;2022-09-09T00:02:43;10.57;;;9.98;;
33900;SDS011;20193;49.810;6.418;2022-09-09T00:05:41;9.80;;;9.30;;
33900;SDS011;20193;49.810;6.418;2022-09-09T00:08:18;9.73;;;9.13;;
33900;SDS011;20193;49.810;6.418;2022-09-09T00:10:48;9.40;;;8.80;;
33900;SDS011;20193;49.810;6.418;2022-09-09T00:13:32;9.15;;;8.63;;
33900;SDS011;20193;49.810;6.418;2022-09-09T00:16:13;9.23;;;8.73;;
33900;SDS011;20193;49.810;6.418;2022-09-09T00:18:50;9.75;;;8.85;;
33900;SDS011;20193;49.810;6.418;2022-09-09T00:24:04;9.85;;;9.18;;
33900;SDS011;20193;49.810;6.418;2022-09-09T00:26:42;9.13;;;8.52;;
33900;SDS011;20193;49.810;6.418;2022-09-09T00:32:16;9.43;;;8.88;;
33900;SDS011;20193;49.810;6.418;2022-09-09T00:34:48;10.05;;;9.20;;
33900;SDS011;20193;49.810;6.418;2022-09-09T00:37:19;9.85;;;8.88;;
33900;SDS011;20193;49.810;6.418;2022-09-09T00:39:46;9.77;;;9.00;;
33900;SDS011;20193;49.810;6.418;2022-09-09T00:42:16;9.75;;;9.05;;
33900;SDS011;20193;49.810;6.418;2022-09-09T00:44:50;9.93;;;9.35;;
33900;SDS011;20193;49.810;6.418;2022-09-09T00:53:15;10.18;;;9.50;;
33900;SDS011;20193;49.810;6.418;2022-09-09T00:58:31;9.95;;;9.45;;
33900;SDS011;20193;49.810;6.418;2022-09-09T01:01:04;10.40;;;9.80;;
33900;SDS011;20193;49.810;6.418;2022-09-09T01:11:52;10.25;;;9.57;;
33900;SDS011;20193;49.810;6.418;2022-09-09T01:17:07;10.25;;;9.65;;
33900;SDS011;20193;49.810;6.418;2022-09-09T01:22:12;10.52;;;10.00;;
33900;SDS011;20193;49.810;6.418;2022-09-09T01:25:05;10.02;;;9.32;;
33900;SDS011;20193;49.810;6.418;2022-09-09T01:27:43;9.27;;;8.77;;
33900;SDS011;20193;49.810;6.418;2022-09-09T01:30:14;9.57;;;8.88;;
33900;SDS011;20193;49.810;6.418;2022-09-09T01:37:55;9.27;;;8.77;;
33900;SDS011;20193;49.810;6.418;2022-09-09T01:40:21;10.27;;;9.38;;
33900;SDS011;20193;49.810;6.418;2022-09-09T01:42:47;10.00;;;9.23;;
33900;SDS011;20193;49.810;6.418;2022-09-09T01:45:13;10.90;;;10.18;;
33900;SDS011;20193;49.810;6.418;2022-09-09T01:47:39;11.18;;;10.20;;
33900;SDS011;20193;49.810;6.418;2022-09-09T01:50:05;9.75;;;9.07;;
33900;SDS011;20193;49.810;6.418;2022-09-09T01:52:33;9.88;;;8.85;;
33900;SDS011;20193;49.810;6.418;2022-09-09T01:55:01;9.43;;;9.02;;
33900;SDS011;20193;49.810;6.418;2022-09-09T01:57:31;9.63;;;9.05;;
33900;SDS011;20193;49.810;6.418;2022-09-09T02:00:07;10.38;;;9.77;;
33900;SDS011;20193;49.810;6.418;2022-09-09T02:02:42;9.98;;;9.38;;
33900;SDS011;20193;49.810;6.418;2022-09-09T02:08:23;10.77;;;9.82;;
33900;SDS011;20193;49.810;6.418;2022-09-09T02:11:13;10.40;;;9.75;;
33900;SDS011;20193;49.810;6.418;2022-09-09T02:13:51;10.48;;;9.88;;
33900;SDS011;20193;49.810;6.418;2022-09-09T02:16:26;10.73;;;9.80;;
33900;SDS011;20193;49.810;6.418;2022-09-09T02:21:39;9.30;;;8.70;;
33900;SDS011;20193;49.810;6.418;2022-09-09T02:24:08;10.00;;;9.18;;
33900;SDS011;20193;49.810;6.418;2022-09-09T02:26:37;9.88;;;9.30;;
33900;SDS011;20193;49.810;6.418;2022-09-09T02:29:08;10.13;;;9.00;;
33900;SDS011;20193;49.810;6.418;2022-09-09T02:31:39;9.00;;;8.35;;
33900;SDS011;20193;49.810;6.418;2022-09-09T02:34:06;9.45;;;8.95;;
33900;SDS011;20193;49.810;6.418;2022-09-09T02:36:35;10.50;;;9.93;;
33900;SDS011;20193;49.810;6.418;2022-09-09T02:39:04;9.98;;;9.27;;
33900;SDS011;20193;49.810;6.418;2022-09-09T02:41:33;9.95;;;9.35;;
33900;SDS011;20193;49.810;6.418;2022-09-09T02:44:00;10.13;;;9.43;;
33900;SDS011;20193;49.810;6.418;2022-09-09T02:49:19;9.98;;;9.38;;
33900;SDS011;20193;49.810;6.418;2022-09-09T02:52:20;10.38;;;9.60;;
33900;SDS011;20193;49.810;6.418;2022-09-09T02:55:50;10.07;;;9.30;;
33900;SDS011;20193;49.810;6.418;2022-09-09T02:58:19;10.38;;;9.48;;
33900;SDS011;20193;49.810;6.418;2022-09-09T03:00:47;9.63;;;9.02;;
33900;SDS011;20193;49.810;6.418;2022-09-09T03:03:15;10.32;;;9.65;;
33900;SDS011;20193;49.810;6.418;2022-09-09T03:05:42;11.38;;;9.98;;
33900;SDS011;20193;49.810;6.418;2022-09-09T03:08:27;11.13;;;10.18;;
33900;SDS011;20193;49.810;6.418;2022-09-09T03:10:57;11.15;;;10.10;;
33900;SDS011;20193;49.810;6.418;2022-09-09T03:13:26;10.35;;;9.75;;
33900;SDS011;20193;49.810;6.418;2022-09-09T03:15:51;9.70;;;8.95;;
33900;SDS011;20193;49.810;6.418;2022-09-09T03:18:17;11.13;;;10.32;;
33900;SDS011;20193;49.810;6.418;2022-09-09T03:20:43;9.63;;;9.02;;
33900;SDS011;20193;49.810;6.418;2022-09-09T03:23:08;12.15;;;10.50;;
33900;SDS011;20193;49.810;6.418;2022-09-09T03:25:34;11.23;;;10.38;;
33900;SDS011;20193;49.810;6.418;2022-09-09T03:28:00;10.80;;;10.02;;
33900;SDS011;20193;49.810;6.418;2022-09-09T03:30:27;10.63;;;9.82;;
33900;SDS011;20193;49.810;6.418;2022-09-09T03:32:52;10.38;;;9.48;;
33900;SDS011;20193;49.810;6.418;2022-09-09T03:35:20;10.07;;;9.25;;
33900;SDS011;20193;49.810;6.418;2022-09-09T03:37:45;10.65;;;9.80;;
33900;SDS011;20193;49.810;6.418;2022-09-09T03:40:11;9.75;;;9.10;;
33900;SDS011;20193;49.810;6.418;2022-09-09T03:42:37;11.35;;;10.27;;
33900;SDS011;20193;49.810;6.418;2022-09-09T03:45:05;10.32;;;9.63;;
33900;SDS011;20193;49.810;6.418;2022-09-09T03:47:32;10.57;;;9.77;;
33900;SDS011;20193;49.810;6.418;2022-09-09T03:49:58;10.88;;;9.98;;
33900;SDS011;20193;49.810;6.418;2022-09-09T03:52:24;10.02;;;9.32;;
33900;SDS011;20193;49.810;6.418;2022-09-09T03:54:51;10.90;;;10.20;;
33900;SDS011;20193;49.810;6.418;2022-09-09T03:57:17;10.10;;;9.45;;
33900;SDS011;20193;49.810;6.418;2022-09-09T03:59:43;11.13;;;10.10;;
33900;SDS011;20193;49.810;6.418;2022-09-09T04:02:09;10.30;;;9.60;;
33900;SDS011;20193;49.810;6.418;2022-09-09T04:04:35;10.45;;;9.75;;
33900;SDS011;20193;49.810;6.418;2022-09-09T04:07:00;10.93;;;10.10;;
33900;SDS011;20193;49.810;6.418;2022-09-09T04:09:26;12.93;;;10.15;;
33900;SDS011;20193;49.810;6.418;2022-09-09T04:11:52;9.82;;;9.13;;
33900;SDS011;20193;49.810;6.418;2022-09-09T04:14:18;11.95;;;10.82;;
33900;SDS011;20193;49.810;6.418;2022-09-09T04:16:44;10.52;;;9.77;;
33900;SDS011;20193;49.810;6.418;2022-09-09T04:19:11;11.88;;;10.13;;
33900;SDS011;20193;49.810;6.418;2022-09-09T04:21:38;9.82;;;9.20;;
33900;SDS011;20193;49.810;6.418;2022-09-09T04:24:05;10.75;;;9.85;;
33900;SDS011;20193;49.810;6.418;2022-09-09T04:26:32;10.13;;;9.35;;
33900;SDS011;20193;49.810;6.418;2022-09-09T04:28:58;9.98;;;9.38;;
33900;SDS011;20193;49.810;6.418;2022-09-09T04:31:24;10.68;;;9.68;;
33900;SDS011;20193;49.810;6.418;2022-09-09T04:33:50;11.20;;;9.90;;
33900;SDS011;20193;49.810;6.418;2022-09-09T04:36:16;10.57;;;9.57;;
33900;SDS011;20193;49.810;6.418;2022-09-09T04:38:46;11.02;;;10.02;;
33900;SDS011;20193;49.810;6.418;2022-09-09T04:41:13;9.55;;;8.85;;
33900;SDS011;20193;49.810;6.418;2022-09-09T04:43:40;12.63;;;10.20;;
33900;SDS011;20193;49.810;6.418;2022-09-09T04:46:06;10.68;;;9.88;;
33900;SDS011;20193;49.810;6.418;2022-09-09T04:48:31;12.50;;;9.82;;
33900;SDS011;20193;49.810;6.418;2022-09-09T04:50:58;10.80;;;10.00;;
33900;SDS011;20193;49.810;6.418;2022-09-09T04:53:29;10.60;;;8.63;;
33900;SDS011;20193;49.810;6.418;2022-09-09T04:56:05;9.60;;;8.70;;
33900;SDS011;20193;49.810;6.418;2022-09-09T04:58:32;10.20;;;8.73;;
33900;SDS011;20193;49.810;6.418;2022-09-09T05:01:09;9.93;;;8.63;;
33900;SDS011;20193;49.810;6.418;2022-09-09T05:03:39;9.20;;;8.27;;
33900;SDS011;20193;49.810;6.418;2022-09-09T05:06:05;10.25;;;8.43;;
33900;SDS011;20193;49.810;6.418;2022-09-09T05:08:36;10.77;;;8.52;;
33900;SDS011;20193;49.810;6.418;2022-09-09T05:11:03;8.60;;;7.60;;
33900;SDS011;20193;49.810;6.418;2022-09-09T05:13:50;10.20;;;8.38;;
33900;SDS011;20193;49.810;6.418;2022-09-09T05:16:17;10.48;;;8.07;;
33900;SDS011;20193;49.810;6.418;2022-09-09T05:18:43;10.68;;;8.43;;
33900;SDS011;20193;49.810;6.418;2022-09-09T05:21:12;9.88;;;8.40;;
33900;SDS011;20193;49.810;6.418;2022-09-09T05:23:39;9.38;;;8.55;;
33900;SDS011;20193;49.810;6.418;2022-09-09T05:26:06;10.38;;;8.02;;
33900;SDS011;20193;49.810;6.418;2022-09-09T05:28:34;12.57;;;8.60;;
33900;SDS011;20193;49.810;6.418;2022-09-09T05:31:01;8.93;;;7.20;;
33900;SDS011;20193;49.810;6.418;2022-09-09T05:33:29;9.00;;;7.80;;
33900;SDS011;20193;49.810;6.418;2022-09-09T05:35:57;11.35;;;8.68;;
33900;SDS011;20193;49.810;6.418;2022-09-09T05:38:30;9.65;;;7.25;;
33900;SDS011;20193;49.810;6.418;2022-09-09T05:40:58;8.60;;;7.88;;
33900;SDS011;20193;49.810;6.418;2022-09-09T05:43:24;9.20;;;8.13;;
33900;SDS011;20193;49.810;6.418;2022-09-09T05:46:01;9.10;;;7.78;;
33900;SDS011;20193;49.810;6.418;2022-09-09T05:48:31;9.18;;;8.15;;
33900;SDS011;20193;49.810;6.418;2022-09-09T05:50:58;8.38;;;7.78;;
33900;SDS011;20193;49.810;6.418;2022-09-09T05:53:25;10.45;;;8.15;;
33900;SDS011;20193;49.810;6.418;2022-09-09T05:55:59;9.68;;;8.70;;
33900;SDS011;20193;49.810;6.418;2022-09-09T05:58:26;9.52;;;8.60;;
33900;SDS011;20193;49.810;6.418;2022-09-09T06:00:52;8.45;;;7.72;;
33900;SDS011;20193;49.810;6.418;2022-09-09T06:03:19;12.98;;;7.70;;
33900;SDS011;20193;49.810;6.418;2022-09-09T06:05:56;9.70;;;8.32;;
33900;SDS011;20193;49.810;6.418;2022-09-09T06:08:23;8.10;;;7.20;;
33900;SDS011;20193;49.810;6.418;2022-09-09T06:10:48;9.70;;;7.10;;
33900;SDS011;20193;49.810;6.418;2022-09-09T06:13:14;8.38;;;6.53;;
33900;SDS011;20193;49.810;6.418;2022-09-09T06:15:48;7.72;;;6.93;;
33900;SDS011;20193;49.810;6.418;2022-09-09T06:18:17;8.13;;;6.97;;
33900;SDS011;20193;49.810;6.418;2022-09-09T06:20:56;11.18;;;7.00;;
33900;SDS011;20193;49.810;6.418;2022-09-09T06:23:28;7.97;;;7.07;;
33900;SDS011;20193;49.810;6.418;2022-09-09T06:26:01;7.20;;;6.50;;
33900;SDS011;20193;49.810;6.418;2022-09-09T06:28:35;9.65;;;6.70;;
33900;SDS011;20193;49.810;6.418;2022-09-09T06:31:02;13.30;;;7.10;;
33900;SDS011;20193;49.810;6.418;2022-09-09T06:33:33;8.20;;;6.30;;
33900;SDS011;20193;49.810;6.418;2022-09-09T06:36:00;10.80;;;7.65;;
33900;SDS011;20193;49.810;6.418;2022-09-09T06:38:28;8.70;;;7.35;;
33900;SDS011;20193;49.810;6.418;2022-09-09T06:40:54;9.82;;;6.60;;
33900;SDS011;20193;49.810;6.418;2022-09-09T06:43:21;10.13;;;6.97;;
33900;SDS011;20193;49.810;6.418;2022-09-09T06:48:20;8.57;;;6.57;;
33900;SDS011;20193;49.810;6.418;2022-09-09T06:50:46;7.90;;;6.80;;
33900;SDS011;20193;49.810;6.418;2022-09-09T06:53:12;9.48;;;6.72;;
33900;SDS011;20193;49.810;6.418;2022-09-09T06:55:41;10.00;;;7.35;;
33900;SDS011;20193;49.810;6.418;2022-09-09T06:58:09;10.93;;;6.78;;
33900;SDS011;20193;49.810;6.418;2022-09-09T07:00:34;11.35;;;6.43;;
33900;SDS011;20193;49.810;6.418;2022-09-09T07:03:02;11.73;;;7.03;;
33900;SDS011;20193;49.810;6.418;2022-09-09T07:05:28;8.65;;;6.68;;
33900;SDS011;20193;49.810;6.418;2022-09-09T07:07:54;9.57;;;6.57;;
33900;SDS011;20193;49.810;6.418;2022-09-09T07:10:19;7.20;;;6.57;;
33900;SDS011;20193;49.810;6.418;2022-09-09T07:12:49;7.18;;;6.47;;
33900;SDS011;20193;49.810;6.418;2022-09-09T07:15:18;7.60;;;6.80;;
33900;SDS011;20193;49.810;6.418;2022-09-09T07:17:44;10.00;;;7.15;;
33900;SDS011;20193;49.810;6.418;2022-09-09T07:20:10;7.15;;;6.35;;
33900;SDS011;20193;49.810;6.418;2022-09-09T07:22:36;8.73;;;6.00;;
33900;SDS011;20193;49.810;6.418;2022-09-09T07:25:03;15.68;;;6.43;;
33900;SDS011;20193;49.810;6.418;2022-09-09T07:27:30;6.47;;;5.78;;
33900;SDS011;20193;49.810;6.418;2022-09-09T07:29:55;7.28;;;6.00;;
33900;SDS011;20193;49.810;6.418;2022-09-09T07:32:22;8.18;;;5.72;;
33900;SDS011;20193;49.810;6.418;2022-09-09T07:34:48;9.10;;;5.65;;
33900;SDS011;20193;49.810;6.418;2022-09-09T07:37:15;8.07;;;6.40;;
33900;SDS011;20193;49.810;6.418;2022-09-09T07:39:41;13.27;;;6.35;;
33900;SDS011;20193;49.810;6.418;2022-09-09T07:42:07;8.13;;;6.03;;
33900;SDS011;20193;49.810;6.418;2022-09-09T07:44:36;11.85;;;5.72;;
33900;SDS011;20193;49.810;6.418;2022-09-09T07:47:02;12.80;;;6.07;;
33900;SDS011;20193;49.810;6.418;2022-09-09T07:49:28;7.32;;;5.88;;
33900;SDS011;20193;49.810;6.418;2022-09-09T07:51:53;9.65;;;5.95;;
33900;SDS011;20193;49.810;6.418;2022-09-09T07:54:19;6.72;;;6.03;;
33900;SDS011;20193;49.810;6.418;2022-09-09T07:56:48;6.82;;;6.05;;
33900;SDS011;20193;49.810;6.418;2022-09-09T07:59:14;7.72;;;5.80;;
33900;SDS011;20193;49.810;6.418;2022-09-09T08:01:41;6.28;;;5.22;;
33900;SDS011;20193;49.810;6.418;2022-09-09T08:04:10;7.03;;;5.85;;
33900;SDS011;20193;49.810;6.418;2022-09-09T08:06:41;8.00;;;5.50;;
33900;SDS011;20193;49.810;6.418;2022-09-09T08:09:11;6.03;;;5.47;;
33900;SDS011;20193;49.810;6.418;2022-09-09T08:11:38;8.55;;;6.10;;
33900;SDS011;20193;49.810;6.418;2022-09-09T08:14:05;8.07;;;5.90;;
33900;SDS011;20193;49.810;6.418;2022-09-09T08:16:36;10.30;;;5.53;;
33900;SDS011;20193;49.810;6.418;2022-09-09T08:19:04;8.80;;;5.53;;
33900;SDS011;20193;49.810;6.418;2022-09-09T08:21:32;6.25;;;4.68;;
33900;SDS011;20193;49.810;6.418;2022-09-09T08:23:59;10.50;;;5.15;;
33900;SDS011;20193;49.810;6.418;2022-09-09T08:26:27;9.00;;;5.20;;
33900;SDS011;20193;49.810;6.418;2022-09-09T08:28:55;8.48;;;5.30;;
33900;SDS011;20193;49.810;6.418;2022-09-09T08:31:22;7.65;;;4.20;;
33900;SDS011;20193;49.810;6.418;2022-09-09T08:33:50;9.07;;;4.05;;
33900;SDS011;20193;49.810;6.418;2022-09-09T08:36:20;8.27;;;3.70;;
33900;SDS011;20193;49.810;6.418;2022-09-09T08:38:48;7.75;;;4.10;;
33900;SDS011;20193;49.810;6.418;2022-09-09T08:49:31;8.25;;;4.72;;
33900;SDS011;20193;49.810;6.418;2022-09-09T08:52:02;8.57;;;4.35;;
33900;SDS011;20193;49.810;6.418;2022-09-09T08:54:32;7.60;;;3.70;;
33900;SDS011;20193;49.810;6.418;2022-09-09T08:56:59;6.30;;;3.33;;
33900;SDS011;20193;49.810;6.418;2022-09-09T08:59:25;7.57;;;4.35;;
33900;SDS011;20193;49.810;6.418;2022-09-09T09:02:03;7.13;;;4.25;;
33900;SDS011;20193;49.810;6.418;2022-09-09T09:12:27;6.47;;;3.13;;
33900;SDS011;20193;49.810;6.418;2022-09-09T09:14:58;5.65;;;3.05;;
33900;SDS011;20193;49.810;6.418;2022-09-09T09:17:25;5.53;;;3.03;;
33900;SDS011;20193;49.810;6.418;2022-09-09T09:19:56;8.30;;;3.50;;
33900;SDS011;20193;49.810;6.418;2022-09-09T09:25:17;6.32;;;2.55;;
33900;SDS011;20193;49.810;6.418;2022-09-09T09:31:27;5.32;;;2.75;;
33900;SDS011;20193;49.810;6.418;2022-09-09T09:36:11;6.67;;;2.97;;
33900;SDS011;20193;49.810;6.418;2022-09-09T09:38:40;6.50;;;3.00;;
33900;SDS011;20193;49.810;6.418;2022-09-09T09:41:28;7.15;;;2.97;;
33900;SDS011;20193;49.810;6.418;2022-09-09T09:44:00;7.95;;;2.80;;
33900;SDS011;20193;49.810;6.418;2022-09-09T09:46:27;10.38;;;2.75;;
33900;SDS011;20193;49.810;6.418;2022-09-09T09:48:56;5.30;;;2.58;;
33900;SDS011;20193;49.810;6.418;2022-09-09T09:51:26;4.82;;;2.65;;
33900;SDS011;20193;49.810;6.418;2022-09-09T09:53:53;5.57;;;2.55;;
33900;SDS011;20193;49.810;6.418;2022-09-09T09:56:28;9.63;;;3.60;;
33900;SDS011;20193;49.810;6.418;2022-09-09T09:58:54;5.00;;;2.50;;
33900;SDS011;20193;49.810;6.418;2022-09-09T10:01:22;7.05;;;2.97;;
33900;SDS011;20193;49.810;6.418;2022-09-09T10:04:12;7.03;;;2.80;;
33900;SDS011;20193;49.810;6.418;2022-09-09T10:06:41;4.10;;;2.47;;
33900;SDS011;20193;49.810;6.418;2022-09-09T10:15:05;3.00;;;2.63;;
33900;SDS011;20193;49.810;6.418;2022-09-09T10:22:52;5.50;;;2.50;;
33900;SDS011;20193;49.810;6.418;2022-09-09T10:34:09;5.30;;;2.42;;
33900;SDS011;20193;49.810;6.418;2022-09-09T10:36:42;5.10;;;2.92;;
33900;SDS011;20193;49.810;6.418;2022-09-09T10:42:14;5.07;;;3.05;;
33900;SDS011;20193;49.810;6.418;2022-09-09T10:45:07;4.93;;;2.65;;
33900;SDS011;20193;49.810;6.418;2022-09-09T10:56:03;13.23;;;3.60;;
33900;SDS011;20193;49.810;6.418;2022-09-09T10:58:44;8.30;;;3.35;;
33900;SDS011;20193;49.810;6.418;2022-09-09T11:04:03;8.57;;;3.20;;
33900;SDS011;20193;49.810;6.418;2022-09-09T11:06:43;11.13;;;2.97;;
33900;SDS011;20193;49.810;6.418;2022-09-09T11:09:17;10.93;;;3.90;;
33900;SDS011;20193;49.810;6.418;2022-09-09T11:11:53;12.68;;;4.00;;
33900;SDS011;20193;49.810;6.418;2022-09-09T11:17:10;42.85;;;7.20;;
33900;SDS011;20193;49.810;6.418;2022-09-09T11:19:42;35.33;;;6.22;;
33900;SDS011;20193;49.810;6.418;2022-09-09T11:25:16;6.82;;;2.80;;
33900;SDS011;20193;49.810;6.418;2022-09-09T11:30:38;2.95;;;1.88;;
33900;SDS011;20193;49.810;6.418;2022-09-09T11:36:33;8.45;;;2.38;;
33900;SDS011;20193;49.810;6.418;2022-09-09T11:42:05;5.75;;;2.78;;
33900;SDS011;20193;49.810;6.418;2022-09-09T11:44:37;4.40;;;2.40;;
33900;SDS011;20193;49.810;6.418;2022-09-09T11:47:03;5.22;;;2.10;;
33900;SDS011;20193;49.810;6.418;2022-09-09T11:49:40;4.65;;;2.25;;
33900;SDS011;20193;49.810;6.418;2022-09-09T11:52:20;9.50;;;2.42;;
33900;SDS011;20193;49.810;6.418;2022-09-09T11:54:49;4.20;;;2.45;;
33900;SDS011;20193;49.810;6.418;2022-09-09T12:06:20;7.28;;;2.42;;
33900;SDS011;20193;49.810;6.418;2022-09-09T12:08:51;2.97;;;1.95;;
33900;SDS011;20193;49.810;6.418;2022-09-09T12:11:23;4.82;;;2.38;;
33900;SDS011;20193;49.810;6.418;2022-09-09T12:13:54;3.90;;;2.20;;
33900;SDS011;20193;49.810;6.418;2022-09-09T12:16:55;7.55;;;2.58;;
33900;SDS011;20193;49.810;6.418;2022-09-09T12:19:15;2.75;;;2.38;;
33900;SDS011;20193;49.810;6.418;2022-09-09T12:24:19;2.55;;;2.30;;
33900;SDS011;20193;49.810;6.418;2022-09-09T12:27:02;4.68;;;2.35;;
33900;SDS011;20193;49.810;6.418;2022-09-09T12:32:10;5.32;;;2.97;;
33900;SDS011;20193;49.810;6.418;2022-09-09T12:34:59;6.88;;;2.70;;
33900;SDS011;20193;49.810;6.418;2022-09-09T12:37:37;3.92;;;2.65;;
33900;SDS011;20193;49.810;6.418;2022-09-09T12:42:44;5.75;;;3.15;;
33900;SDS011;20193;49.810;6.418;2022-09-09T12:45:17;3.50;;;2.40;;
33900;SDS011;20193;49.810;6.418;2022-09-09T12:47:45;4.55;;;2.42;;
33900;SDS011;20193;49.810;6.418;2022-09-09T12:50:45;4.32;;;3.83;;
33900;SDS011;20193;49.810;6.418;2022-09-09T12:56:00;5.75;;;2.65;;
33900;SDS011;20193;49.810;6.418;2022-09-09T12:58:32;7.82;;;3.30;;
33900;SDS011;20193;49.810;6.418;2022-09-09T13:01:00;5.68;;;3.97;;
33900;SDS011;20193;49.810;6.418;2022-09-09T13:03:30;8.30;;;3.60;;
33900;SDS011;20193;49.810;6.418;2022-09-09T13:06:13;9.13;;;4.90;;
33900;SDS011;20193;49.810;6.418;2022-09-09T13:08:44;5.75;;;5.20;;
33900;SDS011;20193;49.810;6.418;2022-09-09T13:11:11;5.22;;;4.78;;
33900;SDS011;20193;49.810;6.418;2022-09-09T13:13:42;7.85;;;5.38;;
33900;SDS011;20193;49.810;6.418;2022-09-09T13:16:34;7.15;;;5.72;;
33900;SDS011;20193;49.810;6.418;2022-09-09T13:19:07;5.28;;;4.80;;
33900;SDS011;20193;49.810;6.418;2022-09-09T13:21:38;8.63;;;4.97;;
33900;SDS011;20193;49.810;6.418;2022-09-09T13:24:05;6.22;;;4.68;;
33900;SDS011;20193;49.810;6.418;2022-09-09T13:26:56;7.38;;;5.68;;
33900;SDS011;20193;49.810;6.418;2022-09-09T13:29:27;7.32;;;5.60;;
33900;SDS011;20193;49.810;6.418;2022-09-09T13:31:54;7.30;;;5.78;;
33900;SDS011;20193;49.810;6.418;2022-09-09T13:34:31;5.68;;;5.10;;
33900;SDS011;20193;49.810;6.418;2022-09-09T13:37:02;5.95;;;5.45;;
33900;SDS011;20193;49.810;6.418;2022-09-09T13:39:35;6.00;;;5.40;;
33900;SDS011;20193;49.810;6.418;2022-09-09T13:42:02;6.45;;;5.28;;
33900;SDS011;20193;49.810;6.418;2022-09-09T13:44:34;7.88;;;6.32;;
33900;SDS011;20193;49.810;6.418;2022-09-09T13:47:04;7.88;;;7.03;;
33900;SDS011;20193;49.810;6.418;2022-09-09T13:49:33;7.82;;;6.90;;
33900;SDS011;20193;49.810;6.418;2022-09-09T13:52:15;6.45;;;6.05;;
33900;SDS011;20193;49.810;6.418;2022-09-09T13:54:43;7.95;;;7.45;;
33900;SDS011;20193;49.810;6.418;2022-09-09T13:57:23;10.13;;;9.20;;
33900;SDS011;20193;49.810;6.418;2022-09-09T13:59:50;10.68;;;9.93;;
33900;SDS011;20193;49.810;6.418;2022-09-09T14:02:17;12.20;;;11.07;;
33900;SDS011;20193;49.810;6.418;2022-09-09T14:04:43;10.73;;;10.07;;
33900;SDS011;20193;49.810;6.418;2022-09-09T14:07:10;11.02;;;10.35;;
33900;SDS011;20193;49.810;6.418;2022-09-09T14:09:38;11.00;;;10.30;;
33900;SDS011;20193;49.810;6.418;2022-09-09T14:12:04;12.23;;;11.23;;
33900;SDS011;20193;49.810;6.418;2022-09-09T14:14:30;11.07;;;10.48;;
33900;SDS011;20193;49.810;6.418;2022-09-09T14:16:55;11.73;;;11.07;;
33900;SDS011;20193;49.810;6.418;2022-09-09T14:19:21;11.50;;;10.80;;
33900;SDS011;20193;49.810;6.418;2022-09-09T14:21:47;11.23;;;10.32;;
33900;SDS011;20193;49.810;6.418;2022-09-09T14:24:13;13.70;;;12.80;;
33900;SDS011;20193;49.810;6.418;2022-09-09T14:26:39;14.25;;;13.43;;
33900;SDS011;20193;49.810;6.418;2022-09-09T14:29:05;12.30;;;11.60;;
33900;SDS011;20193;49.810;6.418;2022-09-09T14:31:31;12.43;;;11.73;;
33900;SDS011;20193;49.810;6.418;2022-09-09T14:33:57;12.38;;;11.50;;
33900;SDS011;20193;49.810;6.418;2022-09-09T14:36:23;12.65;;;11.63;;
33900;SDS011;20193;49.810;6.418;2022-09-09T14:38:49;12.25;;;11.20;;
33900;SDS011;20193;49.810;6.418;2022-09-09T14:41:17;10.98;;;10.40;;
33900;SDS011;20193;49.810;6.418;2022-09-09T14:43:45;11.57;;;10.75;;
33900;SDS011;20193;49.810;6.418;2022-09-09T14:46:12;12.07;;;11.02;;
33900;SDS011;20193;49.810;6.418;2022-09-09T14:48:39;10.60;;;10.00;;
33900;SDS011;20193;49.810;6.418;2022-09-09T14:51:09;10.07;;;9.07;;
33900;SDS011;20193;49.810;6.418;2022-09-09T14:53:52;10.13;;;9.40;;
33900;SDS011;20193;49.810;6.418;2022-09-09T14:56:20;10.25;;;9.50;;
33900;SDS011;20193;49.810;6.418;2022-09-09T14:58:48;8.80;;;8.30;;
33900;SDS011;20193;49.810;6.418;2022-09-09T15:01:15;9.40;;;8.60;;
33900;SDS011;20193;49.810;6.418;2022-09-09T15:03:42;7.40;;;7.00;;
33900;SDS011;20193;49.810;6.418;2022-09-09T15:06:13;7.55;;;6.80;;
33900;SDS011;20193;49.810;6.418;2022-09-09T15:08:40;6.70;;;6.28;;
33900;SDS011;20193;49.810;6.418;2022-09-09T15:11:07;6.60;;;6.20;;
33900;SDS011;20193;49.810;6.418;2022-09-09T15:13:34;6.28;;;5.82;;
33900;SDS011;20193;49.810;6.418;2022-09-09T15:16:05;7.15;;;6.47;;
33900;SDS011;20193;49.810;6.418;2022-09-09T15:18:32;6.82;;;6.30;;
33900;SDS011;20193;49.810;6.418;2022-09-09T15:21:02;7.82;;;7.18;;
33900;SDS011;20193;49.810;6.418;2022-09-09T15:23:34;8.23;;;7.55;;
33900;SDS011;20193;49.810;6.418;2022-09-09T15:26:02;7.97;;;7.22;;
33900;SDS011;20193;49.810;6.418;2022-09-09T15:28:29;8.38;;;7.82;;
33900;SDS011;20193;49.810;6.418;2022-09-09T15:30:57;8.20;;;7.60;;
33900;SDS011;20193;49.810;6.418;2022-09-09T15:33:29;8.15;;;7.72;;
33900;SDS011;20193;49.810;6.418;2022-09-09T15:35:54;9.32;;;8.50;;
33900;SDS011;20193;49.810;6.418;2022-09-09T15:38:20;7.82;;;7.22;;
33900;SDS011;20193;49.810;6.418;2022-09-09T15:40:52;9.10;;;8.50;;
33900;SDS011;20193;49.810;6.418;2022-09-09T15:43:19;9.07;;;8.48;;
33900;SDS011;20193;49.810;6.418;2022-09-09T15:45:45;10.40;;;9.30;;
33900;SDS011;20193;49.810;6.418;2022-09-09T15:48:13;10.88;;;9.98;;
33900;SDS011;20193;49.810;6.418;2022-09-09T15:50:40;10.73;;;10.02;;
33900;SDS011;20193;49.810;6.418;2022-09-09T15:53:05;10.95;;;10.18;;
33900;SDS011;20193;49.810;6.418;2022-09-09T15:55:31;11.05;;;10.35;;
33900;SDS011;20193;49.810;6.418;2022-09-09T15:57:56;10.95;;;10.35;;
33900;SDS011;20193;49.810;6.418;2022-09-09T16:00:22;10.63;;;9.98;;
33900;SDS011;20193;49.810;6.418;2022-09-09T16:02:49;14.95;;;13.82;;
33900;SDS011;20193;49.810;6.418;2022-09-09T16:05:15;11.38;;;10.57;;
33900;SDS011;20193;49.810;6.418;2022-09-09T16:07:40;10.40;;;9.70;;
33900;SDS011;20193;49.810;6.418;2022-09-09T16:10:07;10.80;;;10.15;;
33900;SDS011;20193;49.810;6.418;2022-09-09T16:12:33;11.27;;;10.55;;
33900;SDS011;20193;49.810;6.418;2022-09-09T16:14:59;10.75;;;10.15;;
33900;SDS011;20193;49.810;6.418;2022-09-09T16:17:26;11.13;;;10.43;;
33900;SDS011;20193;49.810;6.418;2022-09-09T16:19:52;11.10;;;10.30;;
33900;SDS011;20193;49.810;6.418;2022-09-09T16:22:19;10.77;;;10.18;;
33900;SDS011;20193;49.810;6.418;2022-09-09T16:24:44;11.32;;;10.68;;
33900;SDS011;20193;49.810;6.418;2022-09-09T16:27:10;10.32;;;9.50;;
33900;SDS011;20193;49.810;6.418;2022-09-09T16:29:36;10.85;;;10.23;;
33900;SDS011;20193;49.810;6.418;2022-09-09T16:32:02;10.43;;;9.65;;
33900;SDS011;20193;49.810;6.418;2022-09-09T16:34:27;10.63;;;9.85;;
33900;SDS011;20193;49.810;6.418;2022-09-09T16:36:53;10.90;;;9.95;;
33900;SDS011;20193;49.810;6.418;2022-09-09T16:39:20;9.40;;;8.80;;
33900;SDS011;20193;49.810;6.418;2022-09-09T16:41:46;9.50;;;8.85;;
33900;SDS011;20193;49.810;6.418;2022-09-09T16:44:13;9.25;;;8.70;;
33900;SDS011;20193;49.810;6.418;2022-09-09T16:46:42;10.15;;;9.48;;
33900;SDS011;20193;49.810;6.418;2022-09-09T16:49:09;9.13;;;8.55;;
33900;SDS011;20193;49.810;6.418;2022-09-09T16:51:49;8.50;;;7.80;;
33900;SDS011;20193;49.810;6.418;2022-09-09T16:54:18;8.40;;;7.75;;
33900;SDS011;20193;49.810;6.418;2022-09-09T16:56:45;7.93;;;7.43;;
33900;SDS011;20193;49.810;6.418;2022-09-09T16:59:13;7.78;;;7.20;;
33900;SDS011;20193;49.810;6.418;2022-09-09T17:01:41;7.32;;;6.82;;
33900;SDS011;20193;49.810;6.418;2022-09-09T17:04:17;7.38;;;6.78;;
33900;SDS011;20193;49.810;6.418;2022-09-09T17:06:48;7.40;;;6.85;;
33900;SDS011;20193;49.810;6.418;2022-09-09T17:09:16;7.80;;;7.22;;
33900;SDS011;20193;49.810;6.418;2022-09-09T17:11:42;7.50;;;7.05;;
33900;SDS011;20193;49.810;6.418;2022-09-09T17:14:09;7.97;;;7.43;;